Time,TemperatureF,DewpointF,PressureIn,WindDirection,WindDirectionDegrees,WindSpeedMPH,WindSpeedGustMPH,Humidity,HourlyPrecipIn,Conditions,Clouds,dailyrainin,SoftwareType,DateUTC
2013-06-21 00:08:00,77.2,72.7,29.90,SSE,157,5.3,-999.0,86,-99.99,,,0.00,Acu-Link.com,2013-06-21 05:08:00,
2013-06-21 00:23:00,77.4,72.5,29.90,South,180,6.8,-999.0,85,-99.99,,,0.00,Acu-Link.com,2013-06-21 05:23:00,
2013-06-21 00:38:00,77.9,72.7,29.90,SSE,157,9.9,-999.0,84,-99.99,,,0.00,Acu-Link.com,2013-06-21 05:38:00,
2013-06-21 00:53:00,78.1,72.5,29.91,SSW,202,8.9,-999.0,83,-99.99,,,0.00,Acu-Link.com,2013-06-21 05:53:00,
2013-06-21 01:09:00,77.5,72.3,29.89,South,180,6.8,-999.0,84,-99.99,,,0.00,Acu-Link.com,2013-06-21 06:09:00,
2013-06-21 01:24:00,78.1,72.5,29.89,South,180,9.4,-999.0,83,-99.99,,,0.00,Acu-Link.com,2013-06-21 06:24:00,
2013-06-21 01:39:00,78.1,72.1,29.89,South,180,7.8,-999.0,82,-99.99,,,0.00,Acu-Link.com,2013-06-21 06:39:00,
2013-06-21 01:54:00,78.1,72.1,29.88,South,180,8.3,-999.0,82,-99.99,,,0.00,Acu-Link.com,2013-06-21 06:54:00,
2013-06-21 02:09:00,77.7,72.1,29.87,SSE,157,8.3,-999.0,83,-99.99,,,0.00,Acu-Link.com,2013-06-21 07:09:00,
2013-06-21 02:24:00,77.7,72.1,29.86,SSW,202,13.0,-999.0,83,-99.99,,,0.00,Acu-Link.com,2013-06-21 07:24:00,
2013-06-21 02:39:00,77.5,72.3,29.86,South,180,11.9,-999.0,84,-99.99,,,0.00,Acu-Link.com,2013-06-21 07:39:00,
2013-06-21 02:54:00,77.0,72.1,29.87,SSE,157,8.9,-999.0,85,-99.99,,,0.00,Acu-Link.com,2013-06-21 07:54:00,
2013-06-21 03:09:00,77.0,72.1,29.86,South,180,8.9,-999.0,85,-99.99,,,0.00,Acu-Link.com,2013-06-21 08:09:00,
2013-06-21 03:24:00,76.8,72.3,29.86,South,180,7.8,-999.0,86,-99.99,,,0.00,Acu-Link.com,2013-06-21 08:24:00,
2013-06-21 03:40:00,76.5,72.0,29.86,SW,225,4.2,-999.0,86,-99.99,,,0.00,Acu-Link.com,2013-06-21 08:40:00,
2013-06-21 03:55:00,76.6,72.8,29.86,SSW,202,8.3,-999.0,88,-99.99,,,0.00,Acu-Link.com,2013-06-21 08:55:00,
2013-06-21 04:10:00,77.0,73.2,29.87,South,180,5.3,-999.0,88,-99.99,,,0.00,Acu-Link.com,2013-06-21 09:10:00,
2013-06-21 04:25:00,77.0,73.2,29.88,SSW,202,8.9,-999.0,88,-99.99,,,0.00,Acu-Link.com,2013-06-21 09:25:00,
2013-06-21 04:40:00,77.0,73.2,29.87,South,180,10.9,-999.0,88,-99.99,,,0.00,Acu-Link.com,2013-06-21 09:40:00,
2013-06-21 04:55:00,76.6,73.1,29.87,South,180,7.8,-999.0,89,-99.99,,,0.00,Acu-Link.com,2013-06-21 09:55:00,
2013-06-21 05:10:00,76.5,73.3,29.87,South,180,8.9,-999.0,90,-99.99,,,0.00,Acu-Link.com,2013-06-21 10:10:00,
2013-06-21 05:25:00,76.1,73.3,29.87,South,180,6.3,-999.0,91,-99.99,,,0.00,Acu-Link.com,2013-06-21 10:25:00,
2013-06-21 05:41:00,75.4,72.9,29.87,SE,135,6.3,-999.0,92,-99.99,,,0.00,Acu-Link.com,2013-06-21 10:41:00,
2013-06-21 05:56:00,75.2,72.7,29.87,South,180,5.8,-999.0,92,-99.99,,,0.00,Acu-Link.com,2013-06-21 10:56:00,
2013-06-21 06:11:00,75.4,72.9,29.88,South,180,5.3,-999.0,92,-99.99,,,0.00,Acu-Link.com,2013-06-21 11:11:00,
2013-06-21 06:26:00,75.6,73.4,29.88,SSW,202,4.7,-999.0,93,-99.99,,,0.00,Acu-Link.com,2013-06-21 11:26:00,
2013-06-21 06:41:00,76.3,73.8,29.88,South,180,6.8,-999.0,92,-99.99,,,0.00,Acu-Link.com,2013-06-21 11:41:00,
2013-06-21 06:56:00,76.5,73.7,29.88,South,180,6.8,-999.0,91,-99.99,,,0.00,Acu-Link.com,2013-06-21 11:56:00,
2013-06-21 07:11:00,77.0,73.8,29.89,South,180,13.0,-999.0,90,-99.99,,,0.00,Acu-Link.com,2013-06-21 12:11:00,
2013-06-21 07:26:00,77.5,74.0,29.89,South,180,9.4,-999.0,89,-99.99,,,0.00,Acu-Link.com,2013-06-21 12:26:00,
2013-06-21 07:42:00,78.4,74.5,29.89,South,180,11.4,-999.0,88,-99.99,,,0.00,Acu-Link.com,2013-06-21 12:42:00,
2013-06-21 07:57:00,78.8,74.9,29.89,SSW,202,9.4,-999.0,88,-99.99,,,0.00,Acu-Link.com,2013-06-21 12:57:00,
2013-06-21 08:12:00,79.3,75.1,29.89,SSW,202,8.9,-999.0,87,-99.99,,,0.00,Acu-Link.com,2013-06-21 13:12:00,
2013-06-21 08:27:00,80.6,75.7,29.89,SSE,157,12.5,-999.0,85,-99.99,,,0.00,Acu-Link.com,2013-06-21 13:27:00,
2013-06-21 08:42:00,80.8,75.5,29.89,South,180,10.4,-999.0,84,-99.99,,,0.00,Acu-Link.com,2013-06-21 13:42:00,
2013-06-21 08:57:00,80.2,75.6,29.89,SSW,202,8.3,-999.0,86,-99.99,,,0.00,Acu-Link.com,2013-06-21 13:57:00,
2013-06-21 09:12:00,81.1,76.1,29.90,SSW,202,7.8,-999.0,85,-99.99,,,0.00,Acu-Link.com,2013-06-21 14:12:00,
2013-06-21 09:27:00,83.7,76.9,29.89,South,180,13.5,-999.0,80,-99.99,,,0.00,Acu-Link.com,2013-06-21 14:27:00,
2013-06-21 09:42:00,84.4,77.2,29.88,South,180,7.8,-999.0,79,-99.99,,,0.00,Acu-Link.com,2013-06-21 14:42:00,
2013-06-21 09:58:00,84.9,77.6,29.89,South,180,11.9,-999.0,79,-99.99,,,0.00,Acu-Link.com,2013-06-21 14:58:00,
2013-06-21 10:13:00,85.3,77.6,29.88,SSE,157,13.5,-999.0,78,-99.99,,,0.00,Acu-Link.com,2013-06-21 15:13:00,
2013-06-21 10:28:00,86.7,78.6,29.89,South,180,10.9,-999.0,77,-99.99,,,0.00,Acu-Link.com,2013-06-21 15:28:00,
2013-06-21 10:43:00,86.0,77.9,29.87,SSW,202,11.9,-999.0,77,-99.99,,,0.00,Acu-Link.com,2013-06-21 15:43:00,
2013-06-21 10:58:00,86.4,77.9,29.86,SSE,157,14.0,-999.0,76,-99.99,,,0.00,Acu-Link.com,2013-06-21 15:58:00,
2013-06-21 11:13:00,87.6,79.1,29.87,South,180,5.3,-999.0,76,-99.99,,,0.00,Acu-Link.com,2013-06-21 16:13:00,
2013-06-21 11:28:00,86.0,78.3,29.87,SSE,157,13.5,-999.0,78,-99.99,,,0.00,Acu-Link.com,2013-06-21 16:28:00,
2013-06-21 11:43:00,88.7,79.3,29.87,SW,225,13.0,-999.0,74,-99.99,,,0.00,Acu-Link.com,2013-06-21 16:43:00,
2013-06-21 11:58:00,90.0,79.7,29.88,SSE,157,9.9,-999.0,72,-99.99,,,0.00,Acu-Link.com,2013-06-21 16:58:00,
2013-06-21 13:14:00,91.0,78.9,29.87,SSW,202,11.9,-999.0,68,-99.99,,,0.00,Acu-Link.com,2013-06-21 18:14:00,
2013-06-21 13:29:00,90.5,78.9,29.85,SSW,202,14.5,-999.0,69,-99.99,,,0.00,Acu-Link.com,2013-06-21 18:29:00,
2013-06-21 13:45:00,90.9,79.3,29.85,SSE,157,12.5,-999.0,69,-99.99,,,0.00,Acu-Link.com,2013-06-21 18:45:00,
2013-06-21 14:00:00,91.8,78.8,29.85,SW,225,12.5,-999.0,66,-99.99,,,0.00,Acu-Link.com,2013-06-21 19:00:00,
2013-06-21 14:30:00,92.1,79.1,29.84,SSW,202,12.5,-999.0,66,-99.99,,,0.00,Acu-Link.com,2013-06-21 19:30:00,
2013-06-21 14:45:00,92.1,78.6,29.85,SSW,202,14.0,-999.0,65,-99.99,,,0.00,Acu-Link.com,2013-06-21 19:45:00,
2013-06-21 15:00:00,92.7,79.6,29.84,WSW,247,8.9,-999.0,66,-99.99,,,0.00,Acu-Link.com,2013-06-21 20:00:00,
2013-06-21 15:15:00,92.8,79.7,29.84,South,180,8.3,-999.0,66,-99.99,,,0.00,Acu-Link.com,2013-06-21 20:15:00,
2013-06-21 15:30:00,91.8,78.8,29.85,SSW,202,6.3,-999.0,66,-99.99,,,0.00,Acu-Link.com,2013-06-21 20:30:00,
2013-06-21 15:46:00,91.9,78.9,29.84,WSW,247,9.9,-999.0,66,-99.99,,,0.00,Acu-Link.com,2013-06-21 20:46:00,
2013-06-21 16:01:00,92.8,79.3,29.84,WSW,247,9.9,-999.0,65,-99.99,,,0.00,Acu-Link.com,2013-06-21 21:01:00,
2013-06-21 16:31:00,91.0,77.6,29.84,SSW,202,10.9,-999.0,65,-99.99,,,0.00,Acu-Link.com,2013-06-21 21:31:00,
2013-06-21 17:01:00,92.1,78.6,29.84,South,180,10.9,-999.0,65,-99.99,,,0.00,Acu-Link.com,2013-06-21 22:01:00,
2013-06-21 17:16:00,91.6,78.1,29.84,South,180,13.5,-999.0,65,-99.99,,,0.00,Acu-Link.com,2013-06-21 22:16:00,
2013-06-21 17:31:00,91.4,77.9,29.82,SSW,202,9.9,-999.0,65,-99.99,,,0.00,Acu-Link.com,2013-06-21 22:31:00,
2013-06-21 17:46:00,90.9,77.9,29.83,South,180,9.9,-999.0,66,-99.99,,,0.00,Acu-Link.com,2013-06-21 22:46:00,
2013-06-21 18:02:00,90.7,78.2,29.82,South,180,13.0,-999.0,67,-99.99,,,0.00,Acu-Link.com,2013-06-21 23:02:00,
2013-06-21 18:17:00,90.5,78.0,29.82,South,180,7.8,-999.0,67,-99.99,,,0.00,Acu-Link.com,2013-06-21 23:17:00,
2013-06-21 18:32:00,90.1,77.6,29.82,SSW,202,8.3,-999.0,67,-99.99,,,0.00,Acu-Link.com,2013-06-21 23:32:00,
2013-06-21 18:47:00,89.4,77.9,29.83,SSW,202,9.9,-999.0,69,-99.99,,,0.00,Acu-Link.com,2013-06-21 23:47:00,
2013-06-21 19:02:00,88.9,77.8,29.82,South,180,9.9,-999.0,70,-99.99,,,0.00,Acu-Link.com,2013-06-22 00:02:00,
2013-06-21 19:17:00,87.6,77.4,29.84,SSW,202,7.8,-999.0,72,-99.99,,,0.00,Acu-Link.com,2013-06-22 00:17:00,
2013-06-21 19:32:00,86.7,77.8,29.82,South,180,6.8,-999.0,75,-99.99,,,0.00,Acu-Link.com,2013-06-22 00:32:00,
2013-06-21 19:47:00,86.2,77.3,29.83,South,180,5.8,-999.0,75,-99.99,,,0.00,Acu-Link.com,2013-06-22 00:47:00,
2013-06-21 20:02:00,85.6,77.1,29.83,SSW,202,4.7,-999.0,76,-99.99,,,0.00,Acu-Link.com,2013-06-22 01:02:00,
2013-06-21 20:18:00,85.1,77.4,29.83,South,180,4.7,-999.0,78,-99.99,,,0.00,Acu-Link.com,2013-06-22 01:18:00,
2013-06-21 20:33:00,84.4,77.5,29.84,South,180,4.2,-999.0,80,-99.99,,,0.00,Acu-Link.com,2013-06-22 01:33:00,
2013-06-21 20:48:00,82.9,76.8,29.83,South,180,3.2,-999.0,82,-99.99,,,0.00,Acu-Link.com,2013-06-22 01:48:00,
2013-06-21 21:03:00,82.4,77.1,29.82,South,180,5.3,-999.0,84,-99.99,,,0.00,Acu-Link.com,2013-06-22 02:03:00,
2013-06-21 21:18:00,81.7,76.7,29.82,South,180,5.8,-999.0,85,-99.99,,,0.00,Acu-Link.com,2013-06-22 02:18:00,
2013-06-21 21:33:00,81.3,77.0,29.83,ESE,112,4.2,-999.0,87,-99.99,,,0.00,Acu-Link.com,2013-06-22 02:33:00,
2013-06-21 21:48:00,81.1,76.9,29.82,SSE,157,4.7,-999.0,87,-99.99,,,0.00,Acu-Link.com,2013-06-22 02:48:00,
2013-06-21 22:03:00,81.0,76.8,29.83,SSW,202,5.3,-999.0,87,-99.99,,,0.00,Acu-Link.com,2013-06-22 03:03:00,
2013-06-21 22:18:00,80.4,76.2,29.83,South,180,4.7,-999.0,87,-99.99,,,0.00,Acu-Link.com,2013-06-22 03:18:00,
2013-06-21 22:34:00,80.2,76.0,29.84,South,180,3.7,-999.0,87,-99.99,,,0.00,Acu-Link.com,2013-06-22 03:34:00,
2013-06-21 22:49:00,79.7,75.8,29.83,SW,225,2.2,-999.0,88,-99.99,,,0.00,Acu-Link.com,2013-06-22 03:49:00,
2013-06-21 23:04:00,79.3,75.8,29.83,West,270,2.7,-999.0,89,-99.99,,,0.00,Acu-Link.com,2013-06-22 04:04:00,
2013-06-21 23:19:00,79.2,76.0,29.83,South,180,4.7,-999.0,90,-99.99,,,0.00,Acu-Link.com,2013-06-22 04:19:00,
2013-06-21 23:34:00,79.2,76.0,29.84,SSE,157,5.3,-999.0,90,-99.99,,,0.00,Acu-Link.com,2013-06-22 04:34:00,
2013-06-21 23:49:00,79.2,76.0,29.85,South,180,4.7,-999.0,90,-99.99,,,0.00,Acu-Link.com,2013-06-22 04:49:00,